Summit City, California
Current Conditions -  °F | °C
As of 9:53 PM on Saturday 25 Oct 2014 (Local Time) from KRDD Reporting Station
Overcast Overcast  
Wind Chill: 58°   Ceiling: 9000
Heat Index: 58°   Visibility: 10mi
Dew Point: 52°   Wind: 5mph
Humidity: 81%   Direction: 260°W
Pressure: 30.03"   Gusts: NA
Location:  40.6873°N, 122.399°W
Report Text: KRDD 260453Z 26004KT 10SM OVC090 14/11 A3003 RMK AO2 SLP165 T01440111
Loading
Personal Weather Stations






























Interactive Weather Map
Tropical Storm Tracking
New forecast layout! Learn more

10-Day Weather Forecast

Advertisements
Track Severe Weather on mobile